sensor_id;sensor_type;location;lat;lon;timestamp;pressure;altitude;pressure_sealevel;temperature;humidity
84245;BME280;74383;44.552;18.100;2024-03-23T00:55:59;99613.53;;;6.17;76.21
84245;BME280;74383;44.552;18.100;2024-03-23T00:58:25;99612.09;;;6.14;76.10
84245;BME280;74383;44.552;18.100;2024-03-23T01:00:51;99614.91;;;6.13;76.62
84245;BME280;74383;44.552;18.100;2024-03-23T01:03:16;99604.63;;;6.18;76.01
84245;BME280;74383;44.552;18.100;2024-03-23T01:05:42;99607.69;;;6.22;76.22
84245;BME280;74383;44.552;18.100;2024-03-23T01:08:07;99607.44;;;6.17;76.42
84245;BME280;74383;44.552;18.100;2024-03-23T01:10:33;99598.56;;;6.18;76.18
84245;BME280;74383;44.552;18.100;2024-03-23T01:12:58;99613.84;;;6.07;76.26
84245;BME280;74383;44.552;18.100;2024-03-23T01:15:24;99605.69;;;6.02;76.40
84245;BME280;74383;44.552;18.100;2024-03-23T01:17:49;99604.59;;;5.82;77.80
84245;BME280;74383;44.552;18.100;2024-03-23T01:20:15;99601.97;;;5.82;78.09
84245;BME280;74383;44.552;18.100;2024-03-23T01:22:42;99602.28;;;5.87;76.99
84245;BME280;74383;44.552;18.100;2024-03-23T01:25:07;99606.91;;;5.85;76.96
84245;BME280;74383;44.552;18.100;2024-03-23T01:27:33;99608.78;;;5.77;77.38
84245;BME280;74383;44.552;18.100;2024-03-23T01:29:59;99604.09;;;5.87;77.18
84245;BME280;74383;44.552;18.100;2024-03-23T01:32:25;99598.53;;;5.82;77.19
84245;BME280;74383;44.552;18.100;2024-03-23T01:34:50;99591.00;;;5.79;77.23
84245;BME280;74383;44.552;18.100;2024-03-23T01:37:16;99600.16;;;5.83;76.88
84245;BME280;74383;44.552;18.100;2024-03-23T01:39:41;99587.81;;;5.83;77.32
84245;BME280;74383;44.552;18.100;2024-03-23T01:42:07;99588.63;;;5.84;76.56
84245;BME280;74383;44.552;18.100;2024-03-23T01:44:32;99583.28;;;5.77;75.92
84245;BME280;74383;44.552;18.100;2024-03-23T01:46:58;99585.88;;;5.56;77.44
84245;BME280;74383;44.552;18.100;2024-03-23T01:49:24;99591.66;;;5.66;77.29
84245;BME280;74383;44.552;18.100;2024-03-23T01:51:50;99581.25;;;5.58;77.50
84245;BME280;74383;44.552;18.100;2024-03-23T01:54:16;99567.72;;;5.61;77.64
84245;BME280;74383;44.552;18.100;2024-03-23T01:56:41;99570.78;;;5.65;77.37
84245;BME280;74383;44.552;18.100;2024-03-23T01:59:07;99572.97;;;5.61;76.44
84245;BME280;74383;44.552;18.100;2024-03-23T02:01:34;99571.78;;;5.64;76.87
84245;BME280;74383;44.552;18.100;2024-03-23T02:04:01;99574.00;;;5.45;77.62
84245;BME280;74383;44.552;18.100;2024-03-23T02:06:27;99565.44;;;5.43;78.59
84245;BME280;74383;44.552;18.100;2024-03-23T02:08:54;99570.72;;;5.43;77.53
84245;BME280;74383;44.552;18.100;2024-03-23T02:11:19;99563.56;;;5.52;77.73
84245;BME280;74383;44.552;18.100;2024-03-23T02:13:45;99561.81;;;5.44;77.57
84245;BME280;74383;44.552;18.100;2024-03-23T02:16:11;99558.28;;;5.52;76.71
84245;BME280;74383;44.552;18.100;2024-03-23T02:18:36;99556.41;;;5.31;77.82
84245;BME280;74383;44.552;18.100;2024-03-23T02:21:02;99547.78;;;5.37;77.77
84245;BME280;74383;44.552;18.100;2024-03-23T02:23:28;99558.75;;;5.26;77.64
84245;BME280;74383;44.552;18.100;2024-03-23T02:25:54;99544.50;;;5.35;77.54
84245;BME280;74383;44.552;18.100;2024-03-23T02:28:20;99542.69;;;5.36;77.35
84245;BME280;74383;44.552;18.100;2024-03-23T02:30:45;99540.16;;;5.42;76.40
84245;BME280;74383;44.552;18.100;2024-03-23T02:33:11;99538.16;;;5.30;77.10
84245;BME280;74383;44.552;18.100;2024-03-23T02:35:37;99535.00;;;5.34;76.64
84245;BME280;74383;44.552;18.100;2024-03-23T02:38:02;99534.28;;;5.11;77.53
84245;BME280;74383;44.552;18.100;2024-03-23T02:40:28;99534.25;;;5.26;77.32
84245;BME280;74383;44.552;18.100;2024-03-23T02:42:54;99537.00;;;5.18;77.22
84245;BME280;74383;44.552;18.100;2024-03-23T02:45:20;99530.38;;;5.22;77.72
84245;BME280;74383;44.552;18.100;2024-03-23T02:47:45;99530.84;;;5.25;77.43
84245;BME280;74383;44.552;18.100;2024-03-23T02:50:11;99520.69;;;5.22;76.82
84245;BME280;74383;44.552;18.100;2024-03-23T02:52:37;99525.84;;;5.30;76.82
84245;BME280;74383;44.552;18.100;2024-03-23T02:55:04;99527.09;;;5.20;76.61
84245;BME280;74383;44.552;18.100;2024-03-23T02:57:29;99525.50;;;5.19;77.26
84245;BME280;74383;44.552;18.100;2024-03-23T02:59:55;99513.25;;;5.11;78.40
84245;BME280;74383;44.552;18.100;2024-03-23T03:02:21;99514.16;;;5.18;78.00
84245;BME280;74383;44.552;18.100;2024-03-23T03:04:47;99513.41;;;5.24;77.58
84245;BME280;74383;44.552;18.100;2024-03-23T03:07:13;99504.97;;;5.29;76.53
84245;BME280;74383;44.552;18.100;2024-03-23T03:09:39;99501.94;;;5.11;76.81
84245;BME280;74383;44.552;18.100;2024-03-23T03:12:05;99515.41;;;5.22;77.01
84245;BME280;74383;44.552;18.100;2024-03-23T03:14:31;99510.81;;;4.95;76.56
84245;BME280;74383;44.552;18.100;2024-03-23T03:16:56;99505.28;;;5.04;77.32
84245;BME280;74383;44.552;18.100;2024-03-23T03:19:22;99503.38;;;5.13;76.56
84245;BME280;74383;44.552;18.100;2024-03-23T03:21:48;99505.81;;;5.00;76.91
84245;BME280;74383;44.552;18.100;2024-03-23T03:24:13;99497.81;;;5.08;77.38
84245;BME280;74383;44.552;18.100;2024-03-23T03:26:39;99496.66;;;5.11;77.01
84245;BME280;74383;44.552;18.100;2024-03-23T03:29:05;99500.53;;;5.15;76.92
84245;BME280;74383;44.552;18.100;2024-03-23T03:31:34;99495.94;;;5.17;77.06
84245;BME280;74383;44.552;18.100;2024-03-23T03:33:59;99491.03;;;5.14;76.62
84245;BME280;74383;44.552;18.100;2024-03-23T03:36:25;99502.28;;;5.08;77.19
84245;BME280;74383;44.552;18.100;2024-03-23T03:38:50;99497.00;;;4.93;77.00
84245;BME280;74383;44.552;18.100;2024-03-23T03:41:17;99491.59;;;4.80;78.49
84245;BME280;74383;44.552;18.100;2024-03-23T03:43:43;99492.56;;;4.93;77.49
84245;BME280;74383;44.552;18.100;2024-03-23T03:46:08;99494.59;;;4.91;77.75
84245;BME280;74383;44.552;18.100;2024-03-23T03:48:35;99491.41;;;4.81;76.66
84245;BME280;74383;44.552;18.100;2024-03-23T03:51:00;99490.78;;;4.79;77.42
84245;BME280;74383;44.552;18.100;2024-03-23T03:53:26;99496.28;;;4.84;77.29
84245;BME280;74383;44.552;18.100;2024-03-23T03:55:51;99485.50;;;4.79;77.95
84245;BME280;74383;44.552;18.100;2024-03-23T03:58:17;99492.50;;;4.87;77.94
84245;BME280;74383;44.552;18.100;2024-03-23T04:00:42;99483.63;;;4.73;77.36
84245;BME280;74383;44.552;18.100;2024-03-23T04:03:08;99491.41;;;4.81;77.69
84245;BME280;74383;44.552;18.100;2024-03-23T04:05:34;99495.88;;;4.81;77.75
84245;BME280;74383;44.552;18.100;2024-03-23T04:07:59;99494.94;;;4.88;77.44
84245;BME280;74383;44.552;18.100;2024-03-23T04:10:25;99492.94;;;4.90;76.95
84245;BME280;74383;44.552;18.100;2024-03-23T04:12:52;99490.16;;;4.92;76.72
84245;BME280;74383;44.552;18.100;2024-03-23T04:15:19;99493.41;;;4.79;77.05
84245;BME280;74383;44.552;18.100;2024-03-23T04:17:45;99489.69;;;4.74;76.88
84245;BME280;74383;44.552;18.100;2024-03-23T04:20:11;99489.50;;;4.61;78.29
84245;BME280;74383;44.552;18.100;2024-03-23T04:22:39;99489.31;;;4.62;77.85
84245;BME280;74383;44.552;18.100;2024-03-23T04:25:05;99484.22;;;4.61;78.20
84245;BME280;74383;44.552;18.100;2024-03-23T04:27:34;99484.53;;;4.66;78.08
84245;BME280;74383;44.552;18.100;2024-03-23T04:30:00;99483.09;;;4.63;78.31
84245;BME280;74383;44.552;18.100;2024-03-23T04:32:30;99490.88;;;4.71;77.20
84245;BME280;74383;44.552;18.100;2024-03-23T04:34:56;99494.59;;;4.62;77.81
84245;BME280;74383;44.552;18.100;2024-03-23T04:37:22;99492.69;;;4.71;77.55
84245;BME280;74383;44.552;18.100;2024-03-23T04:39:48;99488.34;;;4.63;77.56
84245;BME280;74383;44.552;18.100;2024-03-23T04:42:16;99492.41;;;4.66;77.84
84245;BME280;74383;44.552;18.100;2024-03-23T04:44:42;99496.59;;;4.75;77.04
84245;BME280;74383;44.552;18.100;2024-03-23T04:47:08;99493.03;;;4.68;76.95
84245;BME280;74383;44.552;18.100;2024-03-23T04:49:38;99488.59;;;4.68;76.80
84245;BME280;74383;44.552;18.100;2024-03-23T04:52:04;99481.53;;;4.69;76.73
84245;BME280;74383;44.552;18.100;2024-03-23T04:54:30;99483.97;;;4.56;77.31
84245;BME280;74383;44.552;18.100;2024-03-23T04:56:57;99486.25;;;4.59;77.87
84245;BME280;74383;44.552;18.100;2024-03-23T04:59:23;99477.81;;;4.63;77.46
84245;BME280;74383;44.552;18.100;2024-03-23T05:01:49;99480.88;;;4.52;78.31
84245;BME280;74383;44.552;18.100;2024-03-23T05:04:15;99489.94;;;4.35;78.64
84245;BME280;74383;44.552;18.100;2024-03-23T05:06:41;99479.44;;;4.49;78.27
84245;BME280;74383;44.552;18.100;2024-03-23T05:09:06;99484.06;;;4.62;78.13
84245;BME280;74383;44.552;18.100;2024-03-23T05:11:35;99478.72;;;4.56;77.87
84245;BME280;74383;44.552;18.100;2024-03-23T05:14:01;99484.59;;;4.58;78.26
84245;BME280;74383;44.552;18.100;2024-03-23T05:16:28;99480.25;;;4.65;78.74
84245;BME280;74383;44.552;18.100;2024-03-23T05:18:54;99484.16;;;4.69;78.22
84245;BME280;74383;44.552;18.100;2024-03-23T05:21:20;99476.19;;;4.77;77.81
84245;BME280;74383;44.552;18.100;2024-03-23T05:23:45;99489.06;;;4.72;78.10
84245;BME280;74383;44.552;18.100;2024-03-23T05:26:11;99482.88;;;4.79;78.27
84245;BME280;74383;44.552;18.100;2024-03-23T05:28:37;99478.53;;;4.86;77.72
84245;BME280;74383;44.552;18.100;2024-03-23T05:31:02;99479.53;;;4.85;77.81
84245;BME280;74383;44.552;18.100;2024-03-23T05:33:28;99479.91;;;4.82;78.22
84245;BME280;74383;44.552;18.100;2024-03-23T05:35:58;99479.78;;;4.90;77.43
84245;BME280;74383;44.552;18.100;2024-03-23T05:38:24;99468.41;;;4.83;77.42
84245;BME280;74383;44.552;18.100;2024-03-23T05:41:07;99472.91;;;4.89;77.97
84245;BME280;74383;44.552;18.100;2024-03-23T05:43:33;99466.59;;;4.84;78.65
84245;BME280;74383;44.552;18.100;2024-03-23T05:46:00;99467.72;;;4.96;78.05
84245;BME280;74383;44.552;18.100;2024-03-23T05:48:27;99462.75;;;5.01;77.69
84245;BME280;74383;44.552;18.100;2024-03-23T05:50:53;99461.09;;;5.00;78.52
84245;BME280;74383;44.552;18.100;2024-03-23T05:53:19;99472.72;;;5.05;79.31
84245;BME280;74383;44.552;18.100;2024-03-23T05:55:49;99463.63;;;5.08;79.96
84245;BME280;74383;44.552;18.100;2024-03-23T05:58:15;99457.47;;;5.16;80.30
84245;BME280;74383;44.552;18.100;2024-03-23T06:00:42;99461.16;;;5.21;80.41
84245;BME280;74383;44.552;18.100;2024-03-23T06:03:08;99461.31;;;5.34;80.04
84245;BME280;74383;44.552;18.100;2024-03-23T06:05:34;99459.63;;;5.48;79.56
84245;BME280;74383;44.552;18.100;2024-03-23T06:07:59;99462.03;;;5.64;78.97
84245;BME280;74383;44.552;18.100;2024-03-23T06:10:25;99458.22;;;5.67;79.11
84245;BME280;74383;44.552;18.100;2024-03-23T06:12:50;99462.16;;;5.77;79.06
84245;BME280;74383;44.552;18.100;2024-03-23T06:15:20;99460.91;;;5.94;78.29
84245;BME280;74383;44.552;18.100;2024-03-23T06:17:46;99460.66;;;6.10;78.13
84245;BME280;74383;44.552;18.100;2024-03-23T06:20:12;99461.97;;;6.00;79.24
84245;BME280;74383;44.552;18.100;2024-03-23T06:22:38;99452.94;;;6.09;78.87
84245;BME280;74383;44.552;18.100;2024-03-23T06:25:04;99447.56;;;6.24;78.84
84245;BME280;74383;44.552;18.100;2024-03-23T06:27:30;99447.50;;;6.38;78.22
84245;BME280;74383;44.552;18.100;2024-03-23T06:29:58;99452.66;;;6.53;77.33
84245;BME280;74383;44.552;18.100;2024-03-23T06:32:23;99450.81;;;6.53;77.29
84245;BME280;74383;44.552;18.100;2024-03-23T06:34:49;99450.91;;;6.66;77.21
84245;BME280;74383;44.552;18.100;2024-03-23T06:37:14;99444.28;;;6.84;76.47
84245;BME280;74383;44.552;18.100;2024-03-23T06:39:40;99444.16;;;6.92;76.10
84245;BME280;74383;44.552;18.100;2024-03-23T06:42:05;99447.66;;;7.05;75.29
84245;BME280;74383;44.552;18.100;2024-03-23T06:44:31;99437.94;;;7.12;75.56
84245;BME280;74383;44.552;18.100;2024-03-23T06:46:57;99438.97;;;7.24;75.56
84245;BME280;74383;44.552;18.100;2024-03-23T06:49:23;99435.16;;;7.40;74.60
84245;BME280;74383;44.552;18.100;2024-03-23T06:51:49;99434.38;;;7.53;75.12
84245;BME280;74383;44.552;18.100;2024-03-23T06:54:16;99432.78;;;7.65;74.02
84245;BME280;74383;44.552;18.100;2024-03-23T06:56:44;99426.31;;;7.80;73.47
84245;BME280;74383;44.552;18.100;2024-03-23T06:59:09;99423.47;;;7.95;73.05
84245;BME280;74383;44.552;18.100;2024-03-23T07:01:35;99421.84;;;8.07;72.90
84245;BME280;74383;44.552;18.100;2024-03-23T07:04:00;99419.16;;;8.14;72.85
84245;BME280;74383;44.552;18.100;2024-03-23T07:06:26;99412.88;;;8.15;71.98
84245;BME280;74383;44.552;18.100;2024-03-23T07:08:52;99410.84;;;8.30;71.94
84245;BME280;74383;44.552;18.100;2024-03-23T07:11:21;99405.94;;;8.47;71.08
84245;BME280;74383;44.552;18.100;2024-03-23T07:13:49;99408.13;;;8.63;71.66
84245;BME280;74383;44.552;18.100;2024-03-23T07:16:16;99401.00;;;8.70;70.37
84245;BME280;74383;44.552;18.100;2024-03-23T07:18:41;99400.94;;;8.83;69.82
84245;BME280;74383;44.552;18.100;2024-03-23T07:21:07;99398.84;;;8.98;70.27
84245;BME280;74383;44.552;18.100;2024-03-23T07:23:33;99401.44;;;9.11;68.47
84245;BME280;74383;44.552;18.100;2024-03-23T07:26:00;99392.78;;;9.29;68.44
84245;BME280;74383;44.552;18.100;2024-03-23T07:28:26;99392.50;;;9.43;68.17
84245;BME280;74383;44.552;18.100;2024-03-23T07:31:13;99382.56;;;9.64;67.46
84245;BME280;74383;44.552;18.100;2024-03-23T07:36:09;99379.50;;;9.91;66.76
84245;BME280;74383;44.552;18.100;2024-03-23T07:38:35;99371.38;;;10.11;66.42
84245;BME280;74383;44.552;18.100;2024-03-23T07:43:32;99363.94;;;10.44;64.54
84245;BME280;74383;44.552;18.100;2024-03-23T07:45:59;99368.06;;;10.58;65.20
84245;BME280;74383;44.552;18.100;2024-03-23T07:48:25;99364.81;;;10.75;63.52
84245;BME280;74383;44.552;18.100;2024-03-23T07:51:04;99356.81;;;10.93;62.75
84245;BME280;74383;44.552;18.100;2024-03-23T07:53:31;99349.13;;;11.03;61.98
84245;BME280;74383;44.552;18.100;2024-03-23T07:55:58;99354.97;;;11.23;60.72
84245;BME280;74383;44.552;18.100;2024-03-23T07:58:25;99336.09;;;11.43;61.49
84245;BME280;74383;44.552;18.100;2024-03-23T08:00:52;99339.00;;;11.64;61.84
84245;BME280;74383;44.552;18.100;2024-03-23T08:03:18;99336.06;;;11.84;61.99
84245;BME280;74383;44.552;18.100;2024-03-23T08:05:43;99334.56;;;12.00;59.54
84245;BME280;74383;44.552;18.100;2024-03-23T08:08:09;99332.38;;;12.20;58.36
84245;BME280;74383;44.552;18.100;2024-03-23T08:10:36;99323.75;;;12.41;58.27
84245;BME280;74383;44.552;18.100;2024-03-23T08:13:02;99319.91;;;12.60;58.09
84245;BME280;74383;44.552;18.100;2024-03-23T08:15:30;99324.59;;;12.81;56.72
84245;BME280;74383;44.552;18.100;2024-03-23T08:17:58;99315.34;;;13.01;55.64
84245;BME280;74383;44.552;18.100;2024-03-23T08:20:24;99316.88;;;13.25;54.78
84245;BME280;74383;44.552;18.100;2024-03-23T08:22:49;99313.44;;;13.41;54.34
84245;BME280;74383;44.552;18.100;2024-03-23T08:25:15;99312.16;;;13.60;53.38
84245;BME280;74383;44.552;18.100;2024-03-23T08:27:44;99297.59;;;13.84;53.41
84245;BME280;74383;44.552;18.100;2024-03-23T08:30:10;99290.94;;;14.04;52.56
84245;BME280;74383;44.552;18.100;2024-03-23T08:32:36;99289.38;;;14.24;51.98
84245;BME280;74383;44.552;18.100;2024-03-23T08:35:02;99290.19;;;14.46;51.41
84245;BME280;74383;44.552;18.100;2024-03-23T08:37:27;99286.53;;;14.74;52.11
84245;BME280;74383;44.552;18.100;2024-03-23T08:39:53;99275.50;;;14.92;50.33
84245;BME280;74383;44.552;18.100;2024-03-23T08:42:18;99274.34;;;15.10;49.24
84245;BME280;74383;44.552;18.100;2024-03-23T08:44:44;99270.00;;;15.36;49.71
84245;BME280;74383;44.552;18.100;2024-03-23T08:47:12;99252.09;;;15.68;49.85
84245;BME280;74383;44.552;18.100;2024-03-23T08:49:37;99251.25;;;16.04;48.81
84245;BME280;74383;44.552;18.100;2024-03-23T08:52:03;99248.72;;;16.30;47.13
84245;BME280;74383;44.552;18.100;2024-03-23T08:54:28;99237.25;;;16.44;44.17
84245;BME280;74383;44.552;18.100;2024-03-23T08:56:56;99234.69;;;16.75;46.21
84245;BME280;74383;44.552;18.100;2024-03-23T08:59:22;99224.56;;;17.12;44.44
84245;BME280;74383;44.552;18.100;2024-03-23T09:01:49;99215.44;;;17.28;41.52
84245;BME280;74383;44.552;18.100;2024-03-23T09:04:14;99207.63;;;17.67;42.69
84245;BME280;74383;44.552;18.100;2024-03-23T09:06:42;99211.38;;;17.76;38.92
84245;BME280;74383;44.552;18.100;2024-03-23T09:09:08;99207.53;;;18.07;40.62
84245;BME280;74383;44.552;18.100;2024-03-23T09:11:33;99199.59;;;18.41;40.25
84245;BME280;74383;44.552;18.100;2024-03-23T09:13:59;99199.66;;;18.31;36.36
84245;BME280;74383;44.552;18.100;2024-03-23T09:16:25;99195.19;;;18.65;36.70
84245;BME280;74383;44.552;18.100;2024-03-23T09:18:51;99187.72;;;18.96;35.78
84245;BME280;74383;44.552;18.100;2024-03-23T09:21:17;99180.72;;;18.95;34.89
84245;BME280;74383;44.552;18.100;2024-03-23T09:23:43;99176.72;;;19.26;35.06
84245;BME280;74383;44.552;18.100;2024-03-23T09:26:09;99166.06;;;19.45;35.03
84245;BME280;74383;44.552;18.100;2024-03-23T09:28:35;99171.22;;;19.36;34.11
84245;BME280;74383;44.552;18.100;2024-03-23T09:31:08;99176.88;;;19.40;34.20
84245;BME280;74383;44.552;18.100;2024-03-23T09:33:35;99167.22;;;19.34;33.59
84245;BME280;74383;44.552;18.100;2024-03-23T09:36:04;99163.69;;;19.38;33.08
84245;BME280;74383;44.552;18.100;2024-03-23T09:38:30;99152.06;;;19.72;33.52
84245;BME280;74383;44.552;18.100;2024-03-23T09:40:56;99143.81;;;19.63;32.69
84245;BME280;74383;44.552;18.100;2024-03-23T09:43:23;99137.66;;;20.05;33.52
84245;BME280;74383;44.552;18.100;2024-03-23T09:45:48;99127.84;;;20.14;32.81
84245;BME280;74383;44.552;18.100;2024-03-23T09:48:15;99126.44;;;20.40;32.18
84245;BME280;74383;44.552;18.100;2024-03-23T09:50:41;99123.81;;;20.35;32.45
84245;BME280;74383;44.552;18.100;2024-03-23T09:53:08;99108.06;;;20.61;32.30
84245;BME280;74383;44.552;18.100;2024-03-23T09:55:35;99107.28;;;20.42;31.16
84245;BME280;74383;44.552;18.100;2024-03-23T09:58:04;99105.72;;;20.73;31.37
84245;BME280;74383;44.552;18.100;2024-03-23T10:00:31;99101.25;;;21.15;31.61
84245;BME280;74383;44.552;18.100;2024-03-23T10:02:57;99093.03;;;21.06;30.82
84245;BME280;74383;44.552;18.100;2024-03-23T10:05:30;99089.91;;;21.45;31.65
84245;BME280;74383;44.552;18.100;2024-03-23T10:10:40;99077.41;;;21.63;30.48
84245;BME280;74383;44.552;18.100;2024-03-23T10:13:05;99074.13;;;21.93;30.28
84245;BME280;74383;44.552;18.100;2024-03-23T10:15:34;99075.97;;;22.20;30.78
84245;BME280;74383;44.552;18.100;2024-03-23T10:18:29;99068.19;;;22.04;28.35
84245;BME280;74383;44.552;18.100;2024-03-23T10:21:19;99060.13;;;22.27;30.41
84245;BME280;74383;44.552;18.100;2024-03-23T10:23:44;99059.78;;;22.42;28.43
84245;BME280;74383;44.552;18.100;2024-03-23T10:26:23;99050.06;;;22.41;28.10
84245;BME280;74383;44.552;18.100;2024-03-23T10:29:00;99048.41;;;22.53;28.48
84245;BME280;74383;44.552;18.100;2024-03-23T10:31:32;99046.38;;;22.59;27.06
84245;BME280;74383;44.552;18.100;2024-03-23T10:33:58;99033.47;;;22.78;27.48
84245;BME280;74383;44.552;18.100;2024-03-23T10:36:26;99030.38;;;22.49;27.49
84245;BME280;74383;44.552;18.100;2024-03-23T10:38:53;99016.66;;;22.90;27.60
84245;BME280;74383;44.552;18.100;2024-03-23T10:41:19;99015.84;;;23.20;27.48
84245;BME280;74383;44.552;18.100;2024-03-23T10:43:46;99010.56;;;23.46;26.75
84245;BME280;74383;44.552;18.100;2024-03-23T10:46:12;99012.78;;;23.52;27.69
84245;BME280;74383;44.552;18.100;2024-03-23T10:48:38;99004.56;;;23.66;26.51
84245;BME280;74383;44.552;18.100;2024-03-23T10:51:05;99000.88;;;23.62;27.33
84245;BME280;74383;44.552;18.100;2024-03-23T10:53:33;99000.13;;;23.96;27.90
84245;BME280;74383;44.552;18.100;2024-03-23T10:55:59;98994.81;;;23.65;26.18
84245;BME280;74383;44.552;18.100;2024-03-23T10:58:39;98986.25;;;23.89;26.18
84245;BME280;74383;44.552;18.100;2024-03-23T11:01:05;98976.69;;;24.34;26.95
84245;BME280;74383;44.552;18.100;2024-03-23T11:03:38;98980.00;;;23.79;25.88
84245;BME280;74383;44.552;18.100;2024-03-23T11:06:04;98967.09;;;23.68;25.48
84245;BME280;74383;44.552;18.100;2024-03-23T11:08:38;98965.94;;;23.52;25.92
84245;BME280;74383;44.552;18.100;2024-03-23T11:11:17;98961.69;;;23.94;26.63
84245;BME280;74383;44.552;18.100;2024-03-23T11:13:43;98949.28;;;24.18;25.05
84245;BME280;74383;44.552;18.100;2024-03-23T11:18:50;98935.75;;;24.65;25.20
84245;BME280;74383;44.552;18.100;2024-03-23T11:21:53;98929.75;;;24.51;25.71
84245;BME280;74383;44.552;18.100;2024-03-23T11:24:21;98926.72;;;24.99;24.16
84245;BME280;74383;44.552;18.100;2024-03-23T11:26:50;98914.56;;;25.05;27.30
84245;BME280;74383;44.552;18.100;2024-03-23T11:29:17;98907.31;;;24.79;23.81
84245;BME280;74383;44.552;18.100;2024-03-23T11:31:51;98904.84;;;24.95;24.99
84245;BME280;74383;44.552;18.100;2024-03-23T11:34:18;98904.06;;;25.24;26.33
84245;BME280;74383;44.552;18.100;2024-03-23T11:36:45;98896.25;;;24.38;25.14
84245;BME280;74383;44.552;18.100;2024-03-23T11:39:17;98886.09;;;24.73;26.01
84245;BME280;74383;44.552;18.100;2024-03-23T11:41:51;98880.81;;;25.14;25.12
84245;BME280;74383;44.552;18.100;2024-03-23T11:44:18;98867.94;;;25.73;25.42
84245;BME280;74383;44.552;18.100;2024-03-23T11:46:44;98871.03;;;25.63;24.42
84245;BME280;74383;44.552;18.100;2024-03-23T11:49:36;98870.34;;;25.25;24.47
84245;BME280;74383;44.552;18.100;2024-03-23T11:52:06;98853.66;;;25.14;23.99
84245;BME280;74383;44.552;18.100;2024-03-23T11:54:33;98858.66;;;25.04;24.68
84245;BME280;74383;44.552;18.100;2024-03-23T11:57:00;98837.84;;;25.58;24.42
84245;BME280;74383;44.552;18.100;2024-03-23T11:59:35;98840.22;;;25.38;23.83
84245;BME280;74383;44.552;18.100;2024-03-23T12:02:06;98829.16;;;25.64;25.74
84245;BME280;74383;44.552;18.100;2024-03-23T12:04:32;98823.66;;;25.52;23.85
84245;BME280;74383;44.552;18.100;2024-03-23T12:07:15;98816.38;;;25.23;23.90
84245;BME280;74383;44.552;18.100;2024-03-23T12:09:41;98809.63;;;25.50;24.26
84245;BME280;74383;44.552;18.100;2024-03-23T12:12:18;98785.91;;;26.04;24.27
84245;BME280;74383;44.552;18.100;2024-03-23T12:14:45;98787.41;;;26.26;22.85
84245;BME280;74383;44.552;18.100;2024-03-23T12:17:13;98785.66;;;25.97;23.06
84245;BME280;74383;44.552;18.100;2024-03-23T12:19:39;98777.94;;;25.99;23.58
84245;BME280;74383;44.552;18.100;2024-03-23T12:22:06;98778.25;;;26.18;22.88
84245;BME280;74383;44.552;18.100;2024-03-23T12:24:33;98769.84;;;25.78;23.13
84245;BME280;74383;44.552;18.100;2024-03-23T12:27:05;98762.84;;;25.77;23.24
84245;BME280;74383;44.552;18.100;2024-03-23T12:29:31;98753.19;;;25.47;23.57
84245;BME280;74383;44.552;18.100;2024-03-23T12:32:01;98759.56;;;24.89;23.62
84245;BME280;74383;44.552;18.100;2024-03-23T12:34:27;98744.41;;;25.50;24.00
84245;BME280;74383;44.552;18.100;2024-03-23T12:36:53;98749.13;;;25.00;23.22
84245;BME280;74383;44.552;18.100;2024-03-23T12:39:19;98730.94;;;25.33;24.08
84245;BME280;74383;44.552;18.100;2024-03-23T12:41:49;98732.31;;;25.39;23.56
84245;BME280;74383;44.552;18.100;2024-03-23T12:44:15;98727.94;;;25.14;23.43
84245;BME280;74383;44.552;18.100;2024-03-23T12:46:41;98732.22;;;25.35;23.78
84245;BME280;74383;44.552;18.100;2024-03-23T12:49:07;98711.13;;;25.53;23.14
84245;BME280;74383;44.552;18.100;2024-03-23T12:51:33;98718.75;;;25.39;22.84
84245;BME280;74383;44.552;18.100;2024-03-23T12:53:59;98715.78;;;25.53;22.99
84245;BME280;74383;44.552;18.100;2024-03-23T12:56:25;98716.59;;;25.65;23.42
84245;BME280;74383;44.552;18.100;2024-03-23T12:58:50;98706.63;;;25.69;22.48
84245;BME280;74383;44.552;18.100;2024-03-23T13:01:19;98702.38;;;25.48;22.19
84245;BME280;74383;44.552;18.100;2024-03-23T13:03:48;98692.59;;;25.67;22.94
84245;BME280;74383;44.552;18.100;2024-03-23T13:06:14;98680.16;;;25.78;22.55
84245;BME280;74383;44.552;18.100;2024-03-23T13:08:40;98676.88;;;25.40;22.96
84245;BME280;74383;44.552;18.100;2024-03-23T13:11:09;98685.91;;;24.99;23.35
84245;BME280;74383;44.552;18.100;2024-03-23T13:13:36;98679.06;;;24.72;23.66
84245;BME280;74383;44.552;18.100;2024-03-23T13:16:02;98691.06;;;24.42;24.19
84245;BME280;74383;44.552;18.100;2024-03-23T13:18:29;98678.53;;;24.58;24.13
84245;BME280;74383;44.552;18.100;2024-03-23T13:20:55;98683.78;;;24.84;24.21
84245;BME280;74383;44.552;18.100;2024-03-23T13:23:21;98685.25;;;24.31;23.80
84245;BME280;74383;44.552;18.100;2024-03-23T13:25:53;98699.41;;;23.91;23.87
84245;BME280;74383;44.552;18.100;2024-03-23T13:28:20;98677.69;;;23.61;24.85
84245;BME280;74383;44.552;18.100;2024-03-23T13:30:55;98672.50;;;23.31;25.10
84245;BME280;74383;44.552;18.100;2024-03-23T13:33:21;98676.00;;;23.22;25.06
84245;BME280;74383;44.552;18.100;2024-03-23T13:35:55;98671.72;;;23.21;25.23
84245;BME280;74383;44.552;18.100;2024-03-23T13:38:22;98671.53;;;23.35;25.55
84245;BME280;74383;44.552;18.100;2024-03-23T13:40:55;98672.00;;;23.37;25.54
84245;BME280;74383;44.552;18.100;2024-03-23T13:43:22;98666.44;;;23.16;25.66
84245;BME280;74383;44.552;18.100;2024-03-23T13:45:50;98657.53;;;23.07;25.31
84245;BME280;74383;44.552;18.100;2024-03-23T13:48:18;98657.88;;;23.14;25.83
84245;BME280;74383;44.552;18.100;2024-03-23T13:50:44;98651.22;;;22.86;25.54
84245;BME280;74383;44.552;18.100;2024-03-23T13:53:10;98649.75;;;22.63;25.73
84245;BME280;74383;44.552;18.100;2024-03-23T13:55:35;98647.66;;;22.60;26.14
84245;BME280;74383;44.552;18.100;2024-03-23T13:58:01;98649.59;;;22.59;25.90
84245;BME280;74383;44.552;18.100;2024-03-23T14:00:29;98637.22;;;22.67;26.76